sensor_id;sensor_type;location;lat;lon;timestamp;P1;durP1;ratioP1;P2;durP2;ratioP2
48367;SDS011;34173;47.446;18.912;2022-11-15T00:01:46;202.43;;;31.33;;
48367;SDS011;34173;47.446;18.912;2022-11-15T00:04:32;110.40;;;27.73;;
48367;SDS011;34173;47.446;18.912;2022-11-15T00:07:18;47.95;;;25.17;;
48367;SDS011;34173;47.446;18.912;2022-11-15T00:10:24;165.48;;;31.85;;
48367;SDS011;34173;47.446;18.912;2022-11-15T00:13:11;49.17;;;26.58;;
48367;SDS011;34173;47.446;18.912;2022-11-15T00:15:58;48.03;;;25.92;;
48367;SDS011;34173;47.446;18.912;2022-11-15T00:18:44;52.80;;;24.63;;
48367;SDS011;34173;47.446;18.912;2022-11-15T00:21:35;41.28;;;23.38;;
48367;SDS011;34173;47.446;18.912;2022-11-15T00:24:21;49.80;;;24.67;;
48367;SDS011;34173;47.446;18.912;2022-11-15T00:27:06;46.78;;;22.77;;
48367;SDS011;34173;47.446;18.912;2022-11-15T00:29:52;39.42;;;21.50;;
48367;SDS011;34173;47.446;18.912;2022-11-15T00:32:39;44.60;;;23.00;;
48367;SDS011;34173;47.446;18.912;2022-11-15T00:35:24;44.10;;;22.77;;
48367;SDS011;34173;47.446;18.912;2022-11-15T00:38:10;42.47;;;23.10;;
48367;SDS011;34173;47.446;18.912;2022-11-15T00:40:56;39.42;;;20.52;;
48367;SDS011;34173;47.446;18.912;2022-11-15T00:43:42;49.35;;;22.02;;
48367;SDS011;34173;47.446;18.912;2022-11-15T00:46:29;56.33;;;23.23;;
48367;SDS011;34173;47.446;18.912;2022-11-15T00:49:15;46.40;;;25.45;;
48367;SDS011;34173;47.446;18.912;2022-11-15T00:52:01;43.70;;;22.62;;
48367;SDS011;34173;47.446;18.912;2022-11-15T00:54:46;39.15;;;23.65;;
48367;SDS011;34173;47.446;18.912;2022-11-15T00:57:32;58.15;;;24.35;;
48367;SDS011;34173;47.446;18.912;2022-11-15T01:00:18;50.60;;;22.75;;
48367;SDS011;34173;47.446;18.912;2022-11-15T01:03:04;57.85;;;24.90;;
48367;SDS011;34173;47.446;18.912;2022-11-15T01:05:50;50.63;;;23.48;;
48367;SDS011;34173;47.446;18.912;2022-11-15T01:08:35;51.97;;;25.55;;
48367;SDS011;34173;47.446;18.912;2022-11-15T01:11:21;49.28;;;25.40;;
48367;SDS011;34173;47.446;18.912;2022-11-15T01:14:07;62.05;;;25.23;;
48367;SDS011;34173;47.446;18.912;2022-11-15T01:16:53;45.75;;;25.90;;
48367;SDS011;34173;47.446;18.912;2022-11-15T01:19:39;63.60;;;24.27;;
48367;SDS011;34173;47.446;18.912;2022-11-15T01:22:25;57.17;;;26.77;;
48367;SDS011;34173;47.446;18.912;2022-11-15T01:25:10;44.35;;;25.92;;
48367;SDS011;34173;47.446;18.912;2022-11-15T01:27:57;79.12;;;28.15;;
48367;SDS011;34173;47.446;18.912;2022-11-15T01:30:42;77.47;;;28.48;;
48367;SDS011;34173;47.446;18.912;2022-11-15T01:33:28;58.30;;;28.05;;
48367;SDS011;34173;47.446;18.912;2022-11-15T01:36:19;45.97;;;24.85;;
48367;SDS011;34173;47.446;18.912;2022-11-15T01:39:09;57.00;;;25.83;;
48367;SDS011;34173;47.446;18.912;2022-11-15T01:41:55;51.22;;;26.40;;
48367;SDS011;34173;47.446;18.912;2022-11-15T01:44:48;46.95;;;24.15;;
48367;SDS011;34173;47.446;18.912;2022-11-15T01:47:48;41.42;;;22.60;;
48367;SDS011;34173;47.446;18.912;2022-11-15T01:50:37;48.47;;;25.15;;
48367;SDS011;34173;47.446;18.912;2022-11-15T01:53:23;52.53;;;23.98;;
48367;SDS011;34173;47.446;18.912;2022-11-15T01:56:12;56.50;;;26.73;;
48367;SDS011;34173;47.446;18.912;2022-11-15T01:59:00;51.70;;;24.35;;
48367;SDS011;34173;47.446;18.912;2022-11-15T02:01:49;51.17;;;25.50;;
48367;SDS011;34173;47.446;18.912;2022-11-15T02:04:45;50.60;;;23.73;;
48367;SDS011;34173;47.446;18.912;2022-11-15T02:07:32;49.33;;;24.73;;
48367;SDS011;34173;47.446;18.912;2022-11-15T02:10:21;45.40;;;25.02;;
48367;SDS011;34173;47.446;18.912;2022-11-15T02:13:08;47.15;;;27.52;;
48367;SDS011;34173;47.446;18.912;2022-11-15T02:37:42;48.30;;;24.45;;
48367;SDS011;34173;47.446;18.912;2022-11-15T02:40:52;46.78;;;26.17;;
48367;SDS011;34173;47.446;18.912;2022-11-15T02:43:56;42.92;;;24.73;;
48367;SDS011;34173;47.446;18.912;2022-11-15T02:47:04;39.10;;;23.77;;
48367;SDS011;34173;47.446;18.912;2022-11-15T02:49:59;40.35;;;23.67;;
48367;SDS011;34173;47.446;18.912;2022-11-15T02:52:48;41.28;;;24.30;;
48367;SDS011;34173;47.446;18.912;2022-11-15T02:55:35;39.95;;;25.17;;
48367;SDS011;34173;47.446;18.912;2022-11-15T03:01:30;37.45;;;22.42;;
48367;SDS011;34173;47.446;18.912;2022-11-15T03:10:26;39.47;;;22.10;;
48367;SDS011;34173;47.446;18.912;2022-11-15T03:16:19;38.80;;;21.92;;
48367;SDS011;34173;47.446;18.912;2022-11-15T03:22:36;36.72;;;20.67;;
48367;SDS011;34173;47.446;18.912;2022-11-15T03:25:24;39.40;;;21.60;;
48367;SDS011;34173;47.446;18.912;2022-11-15T03:28:13;42.22;;;22.77;;
48367;SDS011;34173;47.446;18.912;2022-11-15T03:31:02;39.72;;;22.13;;
48367;SDS011;34173;47.446;18.912;2022-11-15T03:34:09;40.58;;;21.02;;
48367;SDS011;34173;47.446;18.912;2022-11-15T03:36:56;41.83;;;22.75;;
48367;SDS011;34173;47.446;18.912;2022-11-15T03:39:42;40.12;;;21.70;;
48367;SDS011;34173;47.446;18.912;2022-11-15T03:42:43;38.95;;;21.55;;
48367;SDS011;34173;47.446;18.912;2022-11-15T03:45:51;41.72;;;22.10;;
48367;SDS011;34173;47.446;18.912;2022-11-15T03:48:43;39.45;;;22.27;;
48367;SDS011;34173;47.446;18.912;2022-11-15T03:51:34;37.20;;;21.23;;
48367;SDS011;34173;47.446;18.912;2022-11-15T03:54:19;41.72;;;23.25;;
48367;SDS011;34173;47.446;18.912;2022-11-15T03:57:05;40.65;;;22.45;;
48367;SDS011;34173;47.446;18.912;2022-11-15T03:59:51;40.50;;;22.20;;
48367;SDS011;34173;47.446;18.912;2022-11-15T04:02:37;40.67;;;21.90;;
48367;SDS011;34173;47.446;18.912;2022-11-15T04:05:23;41.20;;;21.77;;
48367;SDS011;34173;47.446;18.912;2022-11-15T04:08:09;40.28;;;22.20;;
48367;SDS011;34173;47.446;18.912;2022-11-15T04:10:54;35.13;;;20.52;;
48367;SDS011;34173;47.446;18.912;2022-11-15T04:13:40;36.80;;;20.62;;
48367;SDS011;34173;47.446;18.912;2022-11-15T04:16:26;38.97;;;21.35;;
48367;SDS011;34173;47.446;18.912;2022-11-15T04:19:12;39.53;;;22.35;;
48367;SDS011;34173;47.446;18.912;2022-11-15T04:22:16;35.20;;;20.35;;
48367;SDS011;34173;47.446;18.912;2022-11-15T04:25:20;41.22;;;23.27;;
48367;SDS011;34173;47.446;18.912;2022-11-15T04:28:11;33.08;;;19.73;;
48367;SDS011;34173;47.446;18.912;2022-11-15T04:30:57;33.20;;;19.55;;
48367;SDS011;34173;47.446;18.912;2022-11-15T04:33:43;33.63;;;19.27;;
48367;SDS011;34173;47.446;18.912;2022-11-15T04:36:29;37.25;;;20.05;;
48367;SDS011;34173;47.446;18.912;2022-11-15T04:39:34;29.12;;;17.45;;
48367;SDS011;34173;47.446;18.912;2022-11-15T04:42:19;27.75;;;17.23;;
48367;SDS011;34173;47.446;18.912;2022-11-15T04:45:05;26.85;;;16.62;;
48367;SDS011;34173;47.446;18.912;2022-11-15T04:47:51;30.20;;;18.98;;
48367;SDS011;34173;47.446;18.912;2022-11-15T04:50:37;36.30;;;20.92;;
48367;SDS011;34173;47.446;18.912;2022-11-15T04:53:23;32.47;;;20.25;;
48367;SDS011;34173;47.446;18.912;2022-11-15T04:56:09;33.45;;;19.80;;
48367;SDS011;34173;47.446;18.912;2022-11-15T04:58:55;35.05;;;19.40;;
48367;SDS011;34173;47.446;18.912;2022-11-15T05:01:40;32.70;;;19.23;;
48367;SDS011;34173;47.446;18.912;2022-11-15T05:04:29;37.10;;;20.50;;
48367;SDS011;34173;47.446;18.912;2022-11-15T05:07:15;35.35;;;18.73;;
48367;SDS011;34173;47.446;18.912;2022-11-15T05:10:01;36.08;;;19.62;;
48367;SDS011;34173;47.446;18.912;2022-11-15T05:12:47;39.28;;;21.60;;
48367;SDS011;34173;47.446;18.912;2022-11-15T05:15:33;35.08;;;19.98;;
48367;SDS011;34173;47.446;18.912;2022-11-15T05:18:19;34.65;;;20.15;;
48367;SDS011;34173;47.446;18.912;2022-11-15T05:21:10;35.63;;;20.30;;
48367;SDS011;34173;47.446;18.912;2022-11-15T05:23:57;29.35;;;19.40;;
48367;SDS011;34173;47.446;18.912;2022-11-15T05:26:43;30.77;;;18.75;;
48367;SDS011;34173;47.446;18.912;2022-11-15T05:29:28;34.13;;;17.98;;
48367;SDS011;34173;47.446;18.912;2022-11-15T05:32:14;32.70;;;18.52;;
48367;SDS011;34173;47.446;18.912;2022-11-15T05:35:01;34.35;;;18.67;;
48367;SDS011;34173;47.446;18.912;2022-11-15T05:37:48;38.53;;;18.20;;
48367;SDS011;34173;47.446;18.912;2022-11-15T05:40:34;37.00;;;18.48;;
48367;SDS011;34173;47.446;18.912;2022-11-15T05:43:20;37.05;;;17.73;;
48367;SDS011;34173;47.446;18.912;2022-11-15T05:46:06;39.38;;;19.23;;
48367;SDS011;34173;47.446;18.912;2022-11-15T05:48:52;43.63;;;20.52;;
48367;SDS011;34173;47.446;18.912;2022-11-15T05:51:39;29.80;;;16.80;;
48367;SDS011;34173;47.446;18.912;2022-11-15T05:54:25;29.80;;;17.12;;
48367;SDS011;34173;47.446;18.912;2022-11-15T05:57:11;25.83;;;15.23;;
48367;SDS011;34173;47.446;18.912;2022-11-15T05:59:57;26.60;;;15.82;;
48367;SDS011;34173;47.446;18.912;2022-11-15T06:02:43;28.10;;;17.05;;
48367;SDS011;34173;47.446;18.912;2022-11-15T06:05:29;31.50;;;18.37;;
48367;SDS011;34173;47.446;18.912;2022-11-15T06:08:15;29.27;;;17.00;;
48367;SDS011;34173;47.446;18.912;2022-11-15T06:11:04;29.45;;;16.42;;
48367;SDS011;34173;47.446;18.912;2022-11-15T06:13:51;28.75;;;16.60;;
48367;SDS011;34173;47.446;18.912;2022-11-15T06:16:36;30.45;;;16.65;;
48367;SDS011;34173;47.446;18.912;2022-11-15T06:19:22;27.98;;;15.48;;
48367;SDS011;34173;47.446;18.912;2022-11-15T06:22:08;26.65;;;16.10;;
48367;SDS011;34173;47.446;18.912;2022-11-15T06:24:54;26.62;;;15.27;;
48367;SDS011;34173;47.446;18.912;2022-11-15T06:27:50;27.80;;;15.05;;
48367;SDS011;34173;47.446;18.912;2022-11-15T06:30:36;27.50;;;15.90;;
48367;SDS011;34173;47.446;18.912;2022-11-15T06:33:22;25.48;;;15.20;;
48367;SDS011;34173;47.446;18.912;2022-11-15T06:36:09;26.92;;;16.10;;
48367;SDS011;34173;47.446;18.912;2022-11-15T06:39:03;28.83;;;16.35;;
48367;SDS011;34173;47.446;18.912;2022-11-15T06:41:50;30.02;;;18.10;;
48367;SDS011;34173;47.446;18.912;2022-11-15T06:44:35;32.05;;;17.12;;
48367;SDS011;34173;47.446;18.912;2022-11-15T06:47:21;25.77;;;16.23;;
48367;SDS011;34173;47.446;18.912;2022-11-15T06:50:07;30.58;;;16.90;;
48367;SDS011;34173;47.446;18.912;2022-11-15T06:52:54;32.75;;;16.45;;
48367;SDS011;34173;47.446;18.912;2022-11-15T06:55:40;29.63;;;16.83;;
48367;SDS011;34173;47.446;18.912;2022-11-15T06:58:25;28.42;;;16.65;;
48367;SDS011;34173;47.446;18.912;2022-11-15T07:01:12;29.98;;;16.77;;
48367;SDS011;34173;47.446;18.912;2022-11-15T07:03:58;31.20;;;15.98;;
48367;SDS011;34173;47.446;18.912;2022-11-15T07:06:46;39.15;;;23.48;;
48367;SDS011;34173;47.446;18.912;2022-11-15T07:09:35;32.40;;;20.55;;
48367;SDS011;34173;47.446;18.912;2022-11-15T07:12:20;36.67;;;21.77;;
48367;SDS011;34173;47.446;18.912;2022-11-15T07:15:06;36.75;;;20.65;;
48367;SDS011;34173;47.446;18.912;2022-11-15T07:17:52;36.25;;;21.70;;
48367;SDS011;34173;47.446;18.912;2022-11-15T07:20:38;36.33;;;21.00;;
48367;SDS011;34173;47.446;18.912;2022-11-15T07:23:25;33.78;;;19.00;;
48367;SDS011;34173;47.446;18.912;2022-11-15T07:26:10;38.38;;;20.67;;
48367;SDS011;34173;47.446;18.912;2022-11-15T07:28:56;37.72;;;20.52;;
48367;SDS011;34173;47.446;18.912;2022-11-15T07:31:42;37.28;;;20.55;;
48367;SDS011;34173;47.446;18.912;2022-11-15T07:34:28;40.05;;;21.48;;
48367;SDS011;34173;47.446;18.912;2022-11-15T07:37:14;36.90;;;21.02;;
48367;SDS011;34173;47.446;18.912;2022-11-15T07:40:00;35.72;;;20.62;;
48367;SDS011;34173;47.446;18.912;2022-11-15T07:42:45;36.97;;;21.00;;
48367;SDS011;34173;47.446;18.912;2022-11-15T07:48:28;34.33;;;21.33;;
48367;SDS011;34173;47.446;18.912;2022-11-15T07:51:29;42.67;;;23.12;;
48367;SDS011;34173;47.446;18.912;2022-11-15T07:54:14;37.60;;;21.98;;
48367;SDS011;34173;47.446;18.912;2022-11-15T07:57:00;35.85;;;20.55;;
48367;SDS011;34173;47.446;18.912;2022-11-15T07:59:52;38.03;;;21.40;;
48367;SDS011;34173;47.446;18.912;2022-11-15T08:02:38;36.42;;;21.73;;
48367;SDS011;34173;47.446;18.912;2022-11-15T08:05:24;39.78;;;21.12;;
48367;SDS011;34173;47.446;18.912;2022-11-15T08:08:10;38.88;;;20.95;;
48367;SDS011;34173;47.446;18.912;2022-11-15T08:10:59;37.92;;;21.17;;
48367;SDS011;34173;47.446;18.912;2022-11-15T08:13:46;36.22;;;21.20;;
48367;SDS011;34173;47.446;18.912;2022-11-15T08:16:31;34.22;;;20.23;;
48367;SDS011;34173;47.446;18.912;2022-11-15T08:19:17;37.15;;;19.98;;
48367;SDS011;34173;47.446;18.912;2022-11-15T08:22:03;35.17;;;20.45;;
48367;SDS011;34173;47.446;18.912;2022-11-15T08:24:48;37.00;;;20.23;;
48367;SDS011;34173;47.446;18.912;2022-11-15T08:27:34;35.83;;;20.90;;
48367;SDS011;34173;47.446;18.912;2022-11-15T08:30:20;34.70;;;20.60;;
48367;SDS011;34173;47.446;18.912;2022-11-15T08:33:09;34.17;;;20.35;;
48367;SDS011;34173;47.446;18.912;2022-11-15T08:35:56;35.05;;;20.30;;
48367;SDS011;34173;47.446;18.912;2022-11-15T08:38:43;35.85;;;19.83;;
48367;SDS011;34173;47.446;18.912;2022-11-15T08:41:32;29.98;;;19.08;;
48367;SDS011;34173;47.446;18.912;2022-11-15T08:44:19;35.00;;;19.60;;
48367;SDS011;34173;47.446;18.912;2022-11-15T08:47:05;32.95;;;19.75;;
48367;SDS011;34173;47.446;18.912;2022-11-15T08:49:50;35.75;;;18.60;;
48367;SDS011;34173;47.446;18.912;2022-11-15T08:52:36;34.80;;;19.40;;
48367;SDS011;34173;47.446;18.912;2022-11-15T08:55:21;32.35;;;17.77;;
48367;SDS011;34173;47.446;18.912;2022-11-15T08:58:09;31.25;;;18.12;;
48367;SDS011;34173;47.446;18.912;2022-11-15T09:00:55;32.63;;;18.80;;
48367;SDS011;34173;47.446;18.912;2022-11-15T09:03:41;34.15;;;19.55;;
48367;SDS011;34173;47.446;18.912;2022-11-15T09:06:27;32.90;;;20.85;;
48367;SDS011;34173;47.446;18.912;2022-11-15T09:09:13;35.22;;;18.85;;
48367;SDS011;34173;47.446;18.912;2022-11-15T09:11:59;28.65;;;18.83;;
48367;SDS011;34173;47.446;18.912;2022-11-15T09:14:47;33.00;;;19.12;;
48367;SDS011;34173;47.446;18.912;2022-11-15T09:17:33;36.17;;;20.20;;
48367;SDS011;34173;47.446;18.912;2022-11-15T09:20:19;35.58;;;20.30;;
48367;SDS011;34173;47.446;18.912;2022-11-15T09:23:05;33.00;;;19.20;;
48367;SDS011;34173;47.446;18.912;2022-11-15T09:25:52;33.63;;;20.55;;
48367;SDS011;34173;47.446;18.912;2022-11-15T09:28:38;35.58;;;20.15;;
48367;SDS011;34173;47.446;18.912;2022-11-15T09:31:27;32.78;;;20.25;;
48367;SDS011;34173;47.446;18.912;2022-11-15T09:34:14;35.25;;;19.75;;
48367;SDS011;34173;47.446;18.912;2022-11-15T09:37:00;30.42;;;19.50;;
48367;SDS011;34173;47.446;18.912;2022-11-15T09:39:46;36.95;;;20.90;;
48367;SDS011;34173;47.446;18.912;2022-11-15T09:42:56;33.88;;;20.48;;
48367;SDS011;34173;47.446;18.912;2022-11-15T09:45:50;33.30;;;20.17;;
48367;SDS011;34173;47.446;18.912;2022-11-15T09:48:35;35.72;;;20.52;;
48367;SDS011;34173;47.446;18.912;2022-11-15T09:51:21;39.67;;;22.33;;
48367;SDS011;34173;47.446;18.912;2022-11-15T09:53:57;37.22;;;21.58;;
48367;SDS011;34173;47.446;18.912;2022-11-15T09:56:48;34.60;;;20.83;;
48367;SDS011;34173;47.446;18.912;2022-11-15T10:05:12;38.08;;;20.83;;
48367;SDS011;34173;47.446;18.912;2022-11-15T10:10:43;32.95;;;19.90;;
48367;SDS011;34173;47.446;18.912;2022-11-15T10:13:16;35.33;;;21.40;;
48367;SDS011;34173;47.446;18.912;2022-11-15T10:15:49;38.03;;;22.55;;
48367;SDS011;34173;47.446;18.912;2022-11-15T10:18:18;37.25;;;21.48;;
48367;SDS011;34173;47.446;18.912;2022-11-15T10:21:19;34.90;;;21.58;;
48367;SDS011;34173;47.446;18.912;2022-11-15T10:23:48;36.20;;;20.45;;
48367;SDS011;34173;47.446;18.912;2022-11-15T10:26:16;44.67;;;22.05;;
48367;SDS011;34173;47.446;18.912;2022-11-15T10:28:44;40.88;;;22.23;;
48367;SDS011;34173;47.446;18.912;2022-11-15T10:31:22;36.47;;;21.95;;
48367;SDS011;34173;47.446;18.912;2022-11-15T10:33:59;42.38;;;22.00;;
48367;SDS011;34173;47.446;18.912;2022-11-15T10:36:38;40.95;;;22.67;;
48367;SDS011;34173;47.446;18.912;2022-11-15T10:39:10;41.28;;;24.17;;
48367;SDS011;34173;47.446;18.912;2022-11-15T10:41:39;39.10;;;23.40;;
48367;SDS011;34173;47.446;18.912;2022-11-15T10:49:27;43.10;;;23.92;;
48367;SDS011;34173;47.446;18.912;2022-11-15T10:57:24;39.53;;;23.92;;
48367;SDS011;34173;47.446;18.912;2022-11-15T10:59:54;40.72;;;24.70;;
48367;SDS011;34173;47.446;18.912;2022-11-15T11:02:26;41.45;;;24.23;;
48367;SDS011;34173;47.446;18.912;2022-11-15T11:04:57;41.08;;;23.70;;
48367;SDS011;34173;47.446;18.912;2022-11-15T11:07:26;40.05;;;23.50;;
48367;SDS011;34173;47.446;18.912;2022-11-15T11:10:00;40.45;;;23.23;;
48367;SDS011;34173;47.446;18.912;2022-11-15T11:13:13;39.63;;;23.60;;
48367;SDS011;34173;47.446;18.912;2022-11-15T11:15:43;40.95;;;25.05;;
48367;SDS011;34173;47.446;18.912;2022-11-15T11:18:16;44.47;;;24.10;;
48367;SDS011;34173;47.446;18.912;2022-11-15T11:20:54;41.50;;;24.75;;
48367;SDS011;34173;47.446;18.912;2022-11-15T11:23:42;39.72;;;23.65;;
48367;SDS011;34173;47.446;18.912;2022-11-15T11:26:31;42.30;;;25.48;;
48367;SDS011;34173;47.446;18.912;2022-11-15T11:29:30;45.65;;;25.67;;
48367;SDS011;34173;47.446;18.912;2022-11-15T11:35:14;43.65;;;26.20;;
48367;SDS011;34173;47.446;18.912;2022-11-15T11:37:49;43.45;;;25.65;;
48367;SDS011;34173;47.446;18.912;2022-11-15T11:40:40;43.40;;;26.05;;
48367;SDS011;34173;47.446;18.912;2022-11-15T11:46:14;42.88;;;24.65;;
48367;SDS011;34173;47.446;18.912;2022-11-15T11:48:53;40.70;;;24.23;;
48367;SDS011;34173;47.446;18.912;2022-11-15T11:51:28;48.30;;;27.52;;
48367;SDS011;34173;47.446;18.912;2022-11-15T11:54:05;44.35;;;25.55;;
48367;SDS011;34173;47.446;18.912;2022-11-15T11:56:41;44.92;;;25.00;;
48367;SDS011;34173;47.446;18.912;2022-11-15T12:01:47;44.45;;;25.55;;
48367;SDS011;34173;47.446;18.912;2022-11-15T12:04:24;44.00;;;24.55;;
48367;SDS011;34173;47.446;18.912;2022-11-15T12:06:58;44.30;;;24.77;;
48367;SDS011;34173;47.446;18.912;2022-11-15T12:09:30;43.13;;;25.98;;
48367;SDS011;34173;47.446;18.912;2022-11-15T12:15:04;42.83;;;24.30;;
48367;SDS011;34173;47.446;18.912;2022-11-15T12:17:39;42.70;;;25.17;;
48367;SDS011;34173;47.446;18.912;2022-11-15T12:20:18;43.95;;;24.42;;
48367;SDS011;34173;47.446;18.912;2022-11-15T12:28:15;45.17;;;25.33;;
48367;SDS011;34173;47.446;18.912;2022-11-15T12:30:59;45.08;;;25.70;;
48367;SDS011;34173;47.446;18.912;2022-11-15T12:33:37;43.95;;;25.35;;
48367;SDS011;34173;47.446;18.912;2022-11-15T12:36:11;41.85;;;24.85;;
48367;SDS011;34173;47.446;18.912;2022-11-15T12:38:59;44.95;;;26.05;;
48367;SDS011;34173;47.446;18.912;2022-11-15T12:41:35;44.35;;;24.92;;
48367;SDS011;34173;47.446;18.912;2022-11-15T12:44:04;42.53;;;23.38;;
48367;SDS011;34173;47.446;18.912;2022-11-15T12:52:05;48.83;;;25.92;;
48367;SDS011;34173;47.446;18.912;2022-11-15T13:02:26;44.90;;;26.65;;
48367;SDS011;34173;47.446;18.912;2022-11-15T13:04:55;46.75;;;25.42;;
48367;SDS011;34173;47.446;18.912;2022-11-15T13:07:56;43.65;;;25.52;;
48367;SDS011;34173;47.446;18.912;2022-11-15T13:10:29;45.97;;;26.02;;
48367;SDS011;34173;47.446;18.912;2022-11-15T13:13:00;46.10;;;25.25;;
48367;SDS011;34173;47.446;18.912;2022-11-15T13:18:33;47.05;;;26.95;;
48367;SDS011;34173;47.446;18.912;2022-11-15T13:21:03;46.50;;;24.17;;
48367;SDS011;34173;47.446;18.912;2022-11-15T13:23:53;47.55;;;26.20;;
48367;SDS011;34173;47.446;18.912;2022-11-15T13:26:21;46.55;;;26.85;;
48367;SDS011;34173;47.446;18.912;2022-11-15T13:28:49;49.40;;;26.92;;
48367;SDS011;34173;47.446;18.912;2022-11-15T13:33:46;46.75;;;26.23;;
48367;SDS011;34173;47.446;18.912;2022-11-15T13:36:24;47.72;;;25.83;;
48367;SDS011;34173;47.446;18.912;2022-11-15T13:39:02;51.50;;;26.17;;
48367;SDS011;34173;47.446;18.912;2022-11-15T13:41:33;49.33;;;27.37;;
48367;SDS011;34173;47.446;18.912;2022-11-15T13:44:02;47.42;;;26.62;;
48367;SDS011;34173;47.446;18.912;2022-11-15T13:46:31;47.20;;;27.17;;
48367;SDS011;34173;47.446;18.912;2022-11-15T13:49:03;50.08;;;26.85;;
48367;SDS011;34173;47.446;18.912;2022-11-15T13:56:47;50.45;;;26.65;;
48367;SDS011;34173;47.446;18.912;2022-11-15T13:59:23;52.50;;;28.35;;
48367;SDS011;34173;47.446;18.912;2022-11-15T14:01:53;52.28;;;27.13;;
48367;SDS011;34173;47.446;18.912;2022-11-15T14:04:22;48.75;;;25.37;;
48367;SDS011;34173;47.446;18.912;2022-11-15T14:06:53;46.42;;;26.73;;
48367;SDS011;34173;47.446;18.912;2022-11-15T14:09:36;54.38;;;27.95;;
48367;SDS011;34173;47.446;18.912;2022-11-15T14:14:59;48.40;;;28.35;;
48367;SDS011;34173;47.446;18.912;2022-11-15T14:19:57;48.47;;;25.05;;
48367;SDS011;34173;47.446;18.912;2022-11-15T14:22:26;49.70;;;26.27;;
48367;SDS011;34173;47.446;18.912;2022-11-15T14:25:07;48.30;;;23.87;;
48367;SDS011;34173;47.446;18.912;2022-11-15T14:27:43;44.92;;;24.33;;
48367;SDS011;34173;47.446;18.912;2022-11-15T14:30:31;42.22;;;22.58;;
48367;SDS011;34173;47.446;18.912;2022-11-15T14:32:59;47.50;;;22.92;;
48367;SDS011;34173;47.446;18.912;2022-11-15T14:35:27;47.47;;;25.42;;
48367;SDS011;34173;47.446;18.912;2022-11-15T14:37:54;49.10;;;25.37;;
48367;SDS011;34173;47.446;18.912;2022-11-15T14:40:22;45.88;;;24.60;;
48367;SDS011;34173;47.446;18.912;2022-11-15T14:42:49;51.67;;;27.27;;
48367;SDS011;34173;47.446;18.912;2022-11-15T14:45:18;49.45;;;25.35;;
48367;SDS011;34173;47.446;18.912;2022-11-15T14:47:46;43.90;;;22.98;;
48367;SDS011;34173;47.446;18.912;2022-11-15T14:50:15;44.92;;;24.17;;
48367;SDS011;34173;47.446;18.912;2022-11-15T14:52:44;47.83;;;25.98;;
48367;SDS011;34173;47.446;18.912;2022-11-15T14:55:16;45.90;;;23.42;;
48367;SDS011;34173;47.446;18.912;2022-11-15T14:57:46;44.05;;;21.85;;
48367;SDS011;34173;47.446;18.912;2022-11-15T15:00:14;47.90;;;24.48;;
48367;SDS011;34173;47.446;18.912;2022-11-15T15:02:43;47.85;;;23.90;;
48367;SDS011;34173;47.446;18.912;2022-11-15T15:07:43;48.63;;;24.73;;
48367;SDS011;34173;47.446;18.912;2022-11-15T15:10:11;44.15;;;23.33;;
48367;SDS011;34173;47.446;18.912;2022-11-15T15:13:00;47.42;;;25.55;;
48367;SDS011;34173;47.446;18.912;2022-11-15T15:15:37;48.83;;;24.60;;
48367;SDS011;34173;47.446;18.912;2022-11-15T15:18:05;47.53;;;25.00;;
48367;SDS011;34173;47.446;18.912;2022-11-15T15:20:33;48.28;;;26.85;;
48367;SDS011;34173;47.446;18.912;2022-11-15T15:23:01;46.22;;;24.15;;
48367;SDS011;34173;47.446;18.912;2022-11-15T15:25:30;47.25;;;24.12;;
48367;SDS011;34173;47.446;18.912;2022-11-15T15:27:59;51.45;;;25.40;;
48367;SDS011;34173;47.446;18.912;2022-11-15T15:30:28;47.70;;;25.52;;
48367;SDS011;34173;47.446;18.912;2022-11-15T15:32:57;44.88;;;24.92;;
48367;SDS011;34173;47.446;18.912;2022-11-15T15:35:24;46.00;;;25.48;;
48367;SDS011;34173;47.446;18.912;2022-11-15T15:37:56;48.67;;;24.70;;
48367;SDS011;34173;47.446;18.912;2022-11-15T15:40:24;45.30;;;25.83;;
48367;SDS011;34173;47.446;18.912;2022-11-15T15:42:52;46.55;;;25.27;;
48367;SDS011;34173;47.446;18.912;2022-11-15T15:45:19;50.25;;;25.73;;
48367;SDS011;34173;47.446;18.912;2022-11-15T15:47:47;45.42;;;24.40;;
48367;SDS011;34173;47.446;18.912;2022-11-15T15:50:21;45.22;;;23.62;;
48367;SDS011;34173;47.446;18.912;2022-11-15T15:52:53;46.33;;;23.62;;
48367;SDS011;34173;47.446;18.912;2022-11-15T15:55:22;48.55;;;24.27;;
48367;SDS011;34173;47.446;18.912;2022-11-15T15:57:49;51.35;;;25.83;;
48367;SDS011;34173;47.446;18.912;2022-11-15T16:00:17;51.63;;;25.95;;
48367;SDS011;34173;47.446;18.912;2022-11-15T16:02:46;50.92;;;26.45;;
48367;SDS011;34173;47.446;18.912;2022-11-15T16:05:13;50.85;;;26.85;;
48367;SDS011;34173;47.446;18.912;2022-11-15T16:07:41;55.50;;;26.42;;
48367;SDS011;34173;47.446;18.912;2022-11-15T16:12:54;49.45;;;24.70;;
48367;SDS011;34173;47.446;18.912;2022-11-15T16:15:24;49.95;;;24.85;;
48367;SDS011;34173;47.446;18.912;2022-11-15T16:17:53;56.28;;;27.62;;
48367;SDS011;34173;47.446;18.912;2022-11-15T16:23:07;52.55;;;27.42;;
48367;SDS011;34173;47.446;18.912;2022-11-15T16:25:45;50.92;;;25.98;;
48367;SDS011;34173;47.446;18.912;2022-11-15T16:28:24;51.53;;;26.80;;
48367;SDS011;34173;47.446;18.912;2022-11-15T16:31:09;49.70;;;25.55;;
48367;SDS011;34173;47.446;18.912;2022-11-15T16:33:37;51.08;;;26.40;;
48367;SDS011;34173;47.446;18.912;2022-11-15T16:36:18;50.47;;;25.95;;
48367;SDS011;34173;47.446;18.912;2022-11-15T16:38:56;53.55;;;27.73;;
48367;SDS011;34173;47.446;18.912;2022-11-15T16:41:24;55.17;;;27.83;;
48367;SDS011;34173;47.446;18.912;2022-11-15T16:43:52;53.30;;;26.62;;
48367;SDS011;34173;47.446;18.912;2022-11-15T16:46:24;49.38;;;26.67;;
48367;SDS011;34173;47.446;18.912;2022-11-15T16:48:53;52.62;;;26.10;;
48367;SDS011;34173;47.446;18.912;2022-11-15T16:51:21;52.08;;;26.92;;
48367;SDS011;34173;47.446;18.912;2022-11-15T16:53:49;54.53;;;27.80;;
48367;SDS011;34173;47.446;18.912;2022-11-15T16:56:27;55.85;;;27.23;;
48367;SDS011;34173;47.446;18.912;2022-11-15T16:58:56;55.20;;;27.87;;
48367;SDS011;34173;47.446;18.912;2022-11-15T17:01:35;60.40;;;29.40;;
48367;SDS011;34173;47.446;18.912;2022-11-15T17:04:13;57.97;;;28.27;;
48367;SDS011;34173;47.446;18.912;2022-11-15T17:06:43;57.53;;;28.38;;
48367;SDS011;34173;47.446;18.912;2022-11-15T17:09:16;61.88;;;29.50;;
48367;SDS011;34173;47.446;18.912;2022-11-15T17:11:50;58.60;;;27.87;;
48367;SDS011;34173;47.446;18.912;2022-11-15T17:14:17;57.47;;;28.73;;
48367;SDS011;34173;47.446;18.912;2022-11-15T17:16:45;60.75;;;29.37;;
48367;SDS011;34173;47.446;18.912;2022-11-15T17:19:13;56.47;;;28.12;;
48367;SDS011;34173;47.446;18.912;2022-11-15T17:21:42;60.12;;;28.55;;
48367;SDS011;34173;47.446;18.912;2022-11-15T17:24:11;64.85;;;29.52;;
48367;SDS011;34173;47.446;18.912;2022-11-15T17:26:39;53.60;;;27.87;;